YPKG/KGI METAR and TAF weather

Enter ICAO airport designator
Station Type Date Time Source
YPKG METAR 2019/12/07 07:15 UTC NOAA

YPKG 070715Z AUTO 28015G26KT 9999 // NCD 37/05 Q1005


Station Type Date Time Source
YPKG Decoded METAR 2019/12/07 07:15 UTC NOAA

Kalgoorlie Boulder Amo, Australia (YPKG) 30-47S 121-27E 370M
Dec 07, 2019 - 02:15 AM EST / 2019.12.07 0715 UTC
Wind: from the W (280 degrees) at 17 MPH (15 KT) gusting to 30 MPH (26 KT):0
Visibility: greater than 7 mile(s):0
Temperature: 98 F (37 C)
Dew Point: 41 F (5 C)
Relative Humidity: 13%
Pressure (altimeter): 29.68 in. Hg (1005 hPa)
ob: YPKG 070715Z AUTO 28015G26KT 9999 // NCD 37/05 Q1005
cycle: 7

Station Type Date Time Source
YPKG TAF 2019/12/07 06:00 UTC NOAA

TAF YPKG 070507Z 0706/0806 30014KT CAVOK
FM071200 21010KT CAVOK
FM080000 18006KT CAVOK PROB30 INTER 0706/0710 VRB25G40KT 6000 TSRA FEW140CB

Example: see airport list